createdAt,value
2022-09-22T00:01:05.443Z,97.23
2022-09-22T00:03:34.791Z,97.50
2022-09-22T00:06:04.374Z,96.99
2022-09-22T00:08:34.579Z,97.13
2022-09-22T00:11:09.343Z,97.00
2022-09-22T00:13:38.451Z,97.10
2022-09-22T00:16:10.193Z,97.61
2022-09-22T00:18:38.451Z,97.64
2022-09-22T00:21:09.194Z,97.95
2022-09-22T00:23:37.184Z,97.05
2022-09-22T00:26:06.602Z,98.11
2022-09-22T00:28:35.047Z,98.14
2022-09-22T00:31:07.403Z,97.70
2022-09-22T00:33:35.582Z,98.16
2022-09-22T00:36:04.574Z,98.02
2022-09-22T00:38:33.264Z,97.59
2022-09-22T00:41:01.863Z,97.04
2022-09-22T00:43:32.372Z,97.24
2022-09-22T00:46:08.257Z,97.52
2022-09-22T00:48:44.293Z,97.61
2022-09-22T00:51:14.699Z,97.55
2022-09-22T00:53:43.341Z,97.53
2022-09-22T00:56:14.873Z,97.56
2022-09-22T00:58:46.249Z,97.62
2022-09-22T01:01:15.164Z,96.44
2022-09-22T01:03:45.160Z,96.59
2022-09-22T01:06:17.517Z,96.68
2022-09-22T01:08:46.301Z,97.17
2022-09-22T01:11:15.891Z,97.37
2022-09-22T01:13:53.520Z,97.56
2022-09-22T01:16:34.034Z,97.71
2022-09-22T01:19:25.833Z,97.96
2022-09-22T01:22:04.036Z,97.87
2022-09-22T01:24:49.650Z,96.86
2022-09-22T01:27:54.180Z,97.10
2022-09-22T01:30:25.353Z,97.41
2022-09-22T01:33:23.138Z,97.43
2022-09-22T01:36:00.970Z,97.16
2022-09-22T01:38:34.831Z,97.49
2022-09-22T01:41:07.996Z,97.66
2022-09-22T01:43:44.021Z,97.39
2022-09-22T01:46:18.387Z,98.15
2022-09-22T01:48:50.339Z,98.42
2022-09-22T01:51:22.166Z,97.59
2022-09-22T01:53:56.718Z,98.33
2022-09-22T01:56:26.888Z,98.05
2022-09-22T01:58:58.803Z,98.71
2022-09-22T02:01:31.932Z,97.37
2022-09-22T02:04:05.457Z,98.37
2022-09-22T02:06:37.627Z,98.15
2022-09-22T02:09:07.891Z,97.41
2022-09-22T02:11:36.139Z,97.88
2022-09-22T02:14:05.637Z,97.35
2022-09-22T02:16:35.661Z,98.24
2022-09-22T02:19:12.932Z,98.33
2022-09-22T02:21:42.752Z,98.01
2022-09-22T02:24:28.658Z,98.53
2022-09-22T02:26:57.697Z,99.44
2022-09-22T02:29:27.962Z,99.14
2022-09-22T02:31:59.565Z,99.15
2022-09-22T02:34:28.685Z,98.94
2022-09-22T02:37:02.256Z,98.04
2022-09-22T02:39:35.357Z,98.58
2022-09-22T02:42:14.844Z,98.89
2022-09-22T02:44:49.162Z,98.90
2022-09-22T02:47:23.375Z,98.67
2022-09-22T02:49:52.395Z,97.71
2022-09-22T02:52:21.810Z,98.49
2022-09-22T02:54:49.607Z,98.81
2022-09-22T02:57:17.387Z,98.19
2022-09-22T02:59:45.095Z,98.06
2022-09-22T03:02:13.037Z,98.70
2022-09-22T03:04:42.141Z,98.58
2022-09-22T03:07:09.929Z,98.47
2022-09-22T03:09:37.831Z,98.55
2022-09-22T03:12:06.193Z,98.71
2022-09-22T03:14:34.041Z,98.47
2022-09-22T03:17:01.985Z,97.23
2022-09-22T03:19:29.721Z,98.17
2022-09-22T03:21:58.795Z,98.76
2022-09-22T03:24:26.582Z,99.02
2022-09-22T03:26:54.383Z,99.18
2022-09-22T03:29:22.143Z,99.04
2022-09-22T03:31:49.962Z,98.97
2022-09-22T03:34:17.732Z,98.62
2022-09-22T03:36:45.670Z,98.30
2022-09-22T03:39:14.764Z,98.72
2022-09-22T03:41:42.515Z,98.64
2022-09-22T03:44:10.589Z,97.79
2022-09-22T03:46:38.348Z,98.55
2022-09-22T03:49:06.092Z,98.30
2022-09-22T03:51:34.261Z,98.73
2022-09-22T03:54:02.116Z,98.33
2022-09-22T03:56:31.371Z,98.70
2022-09-22T03:58:59.160Z,98.89
2022-09-22T04:01:27.009Z,98.55
2022-09-22T04:03:54.882Z,99.20
2022-09-22T04:06:22.711Z,98.98
2022-09-22T04:08:50.655Z,98.67
2022-09-22T04:11:18.391Z,99.01
2022-09-22T04:13:47.538Z,98.87
2022-09-22T04:16:15.393Z,99.22
2022-09-22T04:18:43.146Z,98.56
2022-09-22T04:21:11.039Z,98.75
2022-09-22T04:23:38.954Z,99.34
2022-09-22T04:26:07.285Z,99.26
2022-09-22T04:28:35.102Z,99.41
2022-09-22T04:31:04.727Z,99.81
2022-09-22T04:33:32.573Z,99.07
2022-09-22T04:36:00.779Z,99.28
2022-09-22T04:38:28.558Z,99.57
2022-09-22T04:40:57.095Z,99.57
2022-09-22T04:43:25.090Z,99.44
2022-09-22T04:45:53.035Z,99.77
2022-09-22T04:48:22.229Z,99.55
2022-09-22T04:50:50.081Z,99.89
2022-09-22T04:53:17.743Z,99.85
2022-09-22T04:55:52.307Z,100.00
2022-09-22T04:58:20.341Z,100.00
2022-09-22T05:00:48.086Z,100.00
2022-09-22T05:03:21.375Z,100.00
2022-09-22T05:05:52.822Z,100.00
2022-09-22T05:08:20.727Z,100.00
2022-09-22T05:10:48.670Z,100.00
2022-09-22T05:13:16.628Z,100.00
2022-09-22T05:15:44.515Z,100.00
2022-09-22T05:18:12.321Z,100.00
2022-09-22T05:20:40.239Z,100.00
2022-09-22T05:23:09.367Z,100.00
2022-09-22T05:25:37.203Z,100.00
2022-09-22T05:28:05.074Z,100.00
2022-09-22T05:30:32.902Z,100.00
2022-09-22T05:33:00.830Z,100.00
2022-09-22T05:35:31.845Z,100.00
2022-09-22T05:38:03.846Z,100.00
2022-09-22T05:40:33.144Z,100.00
2022-09-22T05:43:01.032Z,100.00
2022-09-22T05:45:29.007Z,100.00
2022-09-22T05:47:56.900Z,100.00
2022-09-22T05:50:24.988Z,100.00
2022-09-22T05:52:52.855Z,100.00
2022-09-22T05:55:20.610Z,100.00
2022-09-22T05:57:56.864Z,100.00
2022-09-22T06:00:24.685Z,100.00
2022-09-22T06:02:57.716Z,100.00
2022-09-22T06:05:26.157Z,100.00
2022-09-22T06:08:00.960Z,100.00
2022-09-22T06:10:29.111Z,100.00
2022-09-22T06:13:02.169Z,100.00
2022-09-22T06:15:31.097Z,100.00
2022-09-22T06:17:58.824Z,100.00
2022-09-22T06:20:26.629Z,100.00
2022-09-22T06:22:54.988Z,100.00
2022-09-22T06:25:23.332Z,100.00
2022-09-22T06:27:59.960Z,100.00
2022-09-22T06:30:31.323Z,100.00
2022-09-22T06:32:59.441Z,100.00
2022-09-22T06:35:28.137Z,100.00
2022-09-22T06:37:59.479Z,100.00
2022-09-22T06:40:29.160Z,100.00
2022-09-22T06:43:02.028Z,100.00
2022-09-22T06:45:32.100Z,100.00
2022-09-22T06:48:00.482Z,100.00
2022-09-22T06:50:31.112Z,100.00
2022-09-22T06:53:00.739Z,100.00
2022-09-22T06:55:29.678Z,100.00
2022-09-22T06:57:58.878Z,100.00
2022-09-22T07:00:31.271Z,100.00
2022-09-22T07:03:06.224Z,100.00
2022-09-22T07:05:34.768Z,100.00
2022-09-22T07:08:04.711Z,100.00
2022-09-22T07:10:37.729Z,100.00
2022-09-22T07:13:06.351Z,100.00
2022-09-22T07:15:35.551Z,100.00
2022-09-22T07:18:05.421Z,100.00
2022-09-22T07:20:33.701Z,100.00
2022-09-22T07:23:01.472Z,100.00
2022-09-22T07:25:29.741Z,100.00
2022-09-22T07:27:58.053Z,100.00
2022-09-22T07:30:27.025Z,100.00
2022-09-22T07:32:54.892Z,100.00
2022-09-22T07:35:24.770Z,100.00
2022-09-22T07:37:56.941Z,100.00
2022-09-22T07:40:24.929Z,100.00
2022-09-22T07:42:52.825Z,100.00
2022-09-22T07:45:21.921Z,99.93
2022-09-22T07:48:07.313Z,99.18
2022-09-22T07:50:36.467Z,98.85
2022-09-22T07:53:05.105Z,97.04
2022-09-22T07:55:36.696Z,96.79
2022-09-22T07:58:04.425Z,96.10
2022-09-22T08:00:33.714Z,95.36
2022-09-22T08:03:01.964Z,95.18
2022-09-22T08:05:30.441Z,94.62
2022-09-22T08:08:02.192Z,94.74
2022-09-22T08:10:33.865Z,94.06
2022-09-22T08:13:03.006Z,94.38
2022-09-22T08:15:30.968Z,93.08
2022-09-22T08:17:59.045Z,92.00
2022-09-22T08:20:29.141Z,91.37
2022-09-22T08:23:02.988Z,88.67
2022-09-22T08:25:31.053Z,88.70
2022-09-22T08:28:01.043Z,86.69
2022-09-22T08:30:28.787Z,86.55
2022-09-22T08:32:56.955Z,86.96
2022-09-22T08:35:24.678Z,87.89
2022-09-22T08:37:52.391Z,89.89
2022-09-22T08:40:24.099Z,88.39
2022-09-22T08:42:55.581Z,87.65
2022-09-22T08:45:31.793Z,86.20
2022-09-22T08:48:21.037Z,84.98
2022-09-22T08:51:08.641Z,82.52
2022-09-22T08:53:43.404Z,80.64
2022-09-22T08:56:23.285Z,79.70
2022-09-22T08:58:59.033Z,78.65
2022-09-22T09:01:45.652Z,77.57
2022-09-22T09:04:42.427Z,78.35
2022-09-22T09:07:21.168Z,76.89
2022-09-22T09:10:03.006Z,73.98
2022-09-22T09:12:59.355Z,74.08
2022-09-22T09:15:41.621Z,72.50
2022-09-22T09:18:15.675Z,71.99
2022-09-22T09:20:46.916Z,72.19
2022-09-22T09:23:19.274Z,71.47
2022-09-22T09:25:50.631Z,70.54
2022-09-22T09:28:27.747Z,68.45
2022-09-22T09:31:04.694Z,68.90
2022-09-22T09:33:40.432Z,69.35
2022-09-22T09:38:50.201Z,67.86
2022-09-22T09:41:20.648Z,67.67
2022-09-22T09:43:54.352Z,67.90
2022-09-22T09:46:37.453Z,67.86
2022-09-22T09:49:12.410Z,67.96
2022-09-22T09:51:42.325Z,66.59
2022-09-22T09:54:16.916Z,66.35
2022-09-22T09:57:06.439Z,65.29
2022-09-22T09:59:53.547Z,64.99
2022-09-22T10:02:27.363Z,66.58
2022-09-22T10:04:57.232Z,62.97
2022-09-22T10:07:28.092Z,62.52
2022-09-22T10:09:57.039Z,62.86
2022-09-22T10:12:27.986Z,61.13
2022-09-22T10:14:59.216Z,62.45
2022-09-22T10:17:30.823Z,61.07
2022-09-22T10:20:24.068Z,62.60
2022-09-22T10:22:52.252Z,62.79
2022-09-22T10:25:23.039Z,61.53
2022-09-22T10:28:02.071Z,60.71
2022-09-22T10:30:33.052Z,59.54
2022-09-22T10:33:14.440Z,59.05
2022-09-22T10:35:44.149Z,59.04
2022-09-22T10:38:22.960Z,57.35
2022-09-22T10:40:57.212Z,58.36
2022-09-22T10:43:37.000Z,56.89
2022-09-22T10:46:26.359Z,57.53
2022-09-22T10:48:56.570Z,57.07
2022-09-22T10:51:41.570Z,56.56
2022-09-22T10:54:21.830Z,57.29
2022-09-22T10:56:53.140Z,54.78
2022-09-22T10:59:37.256Z,54.33
2022-09-22T11:02:29.944Z,54.78
2022-09-22T11:05:11.304Z,55.22
2022-09-22T11:08:16.629Z,56.80
2022-09-22T11:11:18.145Z,55.68
2022-09-22T11:13:57.543Z,56.88
2022-09-22T11:16:38.961Z,55.25
2022-09-22T11:19:23.007Z,56.99
2022-09-22T11:22:05.647Z,57.18
2022-09-22T11:24:47.626Z,56.00
2022-09-22T11:27:26.248Z,54.46
2022-09-22T11:30:11.036Z,54.73
2022-09-22T11:33:02.256Z,53.42
2022-09-22T11:35:43.850Z,52.99
2022-09-22T11:38:29.336Z,53.26
2022-09-22T11:41:19.480Z,53.90
2022-09-22T11:44:25.265Z,55.41
2022-09-22T11:47:07.939Z,54.72
2022-09-22T11:49:52.615Z,54.11
2022-09-22T11:52:43.670Z,54.89
2022-09-22T11:55:25.201Z,53.71
2022-09-22T11:57:58.684Z,54.83
2022-09-22T12:00:29.472Z,54.18
2022-09-22T12:03:02.734Z,54.43
2022-09-22T12:05:37.065Z,53.75
2022-09-22T12:08:09.412Z,54.31
2022-09-22T12:10:40.779Z,53.95
2022-09-22T12:13:15.284Z,52.85
2022-09-22T12:15:50.737Z,52.20
2022-09-22T12:18:27.113Z,52.49
2022-09-22T12:21:02.345Z,49.81
2022-09-22T12:23:45.257Z,50.92
2022-09-22T12:26:26.392Z,51.51
2022-09-22T12:28:55.701Z,50.08
2022-09-22T12:31:34.805Z,49.93
2022-09-22T12:34:04.476Z,49.93
2022-09-22T12:36:35.501Z,50.49
2022-09-22T12:39:18.064Z,51.44
2022-09-22T12:41:49.309Z,50.29
2022-09-22T12:44:22.123Z,50.22
2022-09-22T12:46:51.233Z,48.69
2022-09-22T12:49:22.667Z,48.05
2022-09-22T12:51:52.056Z,47.23
2022-09-22T12:54:39.370Z,45.95
2022-09-22T12:57:29.524Z,45.91
2022-09-22T13:00:24.400Z,47.01
2022-09-22T13:02:54.514Z,46.88
2022-09-22T13:05:37.132Z,46.50
2022-09-22T13:08:05.105Z,46.82
2022-09-22T13:10:50.474Z,47.41
2022-09-22T13:13:25.072Z,46.11
2022-09-22T13:15:59.307Z,47.08
2022-09-22T13:18:35.581Z,46.99
2022-09-22T13:21:19.695Z,48.59
2022-09-22T13:23:57.535Z,48.19
2022-09-22T13:26:29.971Z,48.01
2022-09-22T13:29:03.213Z,49.28
2022-09-22T13:31:37.010Z,49.03
2022-09-22T13:34:23.816Z,46.95
2022-09-22T13:36:54.596Z,45.84
2022-09-22T13:39:25.088Z,45.13
2022-09-22T13:41:59.295Z,46.20
2022-09-22T13:44:30.678Z,45.53
2022-09-22T13:47:01.492Z,46.20
2022-09-22T13:49:33.143Z,46.72
2022-09-22T13:52:05.133Z,46.36
2022-09-22T13:54:36.198Z,45.94
2022-09-22T13:57:08.936Z,45.96
2022-09-22T13:59:42.212Z,46.31
2022-09-22T14:02:12.092Z,47.31
2022-09-22T14:04:50.687Z,47.31
2022-09-22T14:07:20.272Z,46.04
2022-09-22T14:09:49.832Z,46.52
2022-09-22T14:12:20.248Z,45.85
2022-09-22T14:14:48.015Z,44.79
2022-09-22T14:17:20.313Z,43.22
2022-09-22T14:19:57.132Z,42.95
2022-09-22T14:22:27.049Z,43.93
2022-09-22T14:24:58.486Z,45.13
2022-09-22T14:27:32.474Z,42.75
2022-09-22T14:30:01.587Z,44.07
2022-09-22T14:32:36.072Z,42.75
2022-09-22T14:35:06.637Z,42.19
2022-09-22T14:37:39.087Z,41.82
2022-09-22T14:40:15.708Z,41.72
2022-09-22T14:42:57.304Z,41.75
2022-09-22T14:45:27.306Z,42.81
2022-09-22T14:48:18.152Z,42.93
2022-09-22T14:50:49.294Z,42.74
2022-09-22T14:53:21.742Z,43.52
2022-09-22T14:55:51.577Z,43.24
2022-09-22T14:58:24.739Z,44.33
2022-09-22T15:01:13.628Z,43.81
2022-09-22T15:03:44.826Z,44.02
2022-09-22T15:06:14.564Z,42.70
2022-09-22T15:08:48.609Z,43.77
2022-09-22T15:11:16.445Z,43.72
2022-09-22T15:13:47.004Z,44.39
2022-09-22T15:16:36.559Z,43.38
2022-09-22T15:19:04.568Z,44.24
2022-09-22T15:21:38.159Z,44.17
2022-09-22T15:24:06.785Z,44.72
2022-09-22T15:26:34.583Z,44.50
2022-09-22T15:29:03.663Z,44.79
2022-09-22T15:31:32.386Z,44.92
2022-09-22T15:34:02.979Z,46.19
2022-09-22T15:36:32.886Z,45.81
2022-09-22T15:39:06.581Z,46.29
2022-09-22T15:41:35.016Z,46.92
2022-09-22T15:44:04.500Z,45.71
2022-09-22T15:46:35.161Z,46.45
2022-09-22T15:49:08.822Z,46.98
2022-09-22T15:51:36.658Z,47.60
2022-09-22T15:54:07.112Z,47.95
2022-09-22T15:56:34.902Z,47.51
2022-09-22T15:59:05.337Z,47.61
2022-09-22T16:01:33.073Z,46.74
2022-09-22T16:04:01.437Z,46.40
2022-09-22T16:06:29.590Z,45.58
2022-09-22T16:08:58.480Z,45.81
2022-09-22T16:11:29.618Z,45.51
2022-09-22T16:14:00.548Z,44.91
2022-09-22T16:16:30.311Z,45.36
2022-09-22T16:18:58.801Z,45.44
2022-09-22T16:21:28.449Z,44.69
2022-09-22T16:24:00.486Z,45.15
2022-09-22T16:26:31.651Z,45.44
2022-09-22T16:28:59.823Z,45.25
2022-09-22T16:31:29.005Z,46.22
2022-09-22T16:33:58.379Z,46.34
2022-09-22T16:36:28.432Z,46.20
2022-09-22T16:38:56.806Z,45.97
2022-09-22T16:41:25.858Z,46.02
2022-09-22T16:43:54.552Z,46.46
2022-09-22T16:46:30.029Z,46.51
2022-09-22T16:49:03.921Z,47.21
2022-09-22T16:51:33.229Z,47.72
2022-09-22T16:54:01.406Z,49.28
2022-09-22T16:56:30.996Z,50.54
2022-09-22T16:59:01.250Z,51.07
2022-09-22T17:01:31.204Z,51.73
2022-09-22T17:04:00.455Z,52.37
2022-09-22T17:06:28.548Z,54.04
2022-09-22T17:08:58.027Z,55.17
2022-09-22T17:11:29.689Z,55.94
2022-09-22T17:13:59.812Z,57.05
2022-09-22T17:16:29.967Z,57.53
2022-09-22T17:19:03.010Z,57.33
2022-09-22T17:21:34.506Z,58.50
2022-09-22T17:24:03.538Z,59.30
2022-09-22T17:26:34.353Z,59.57
2022-09-22T17:29:02.487Z,60.08
2022-09-22T17:31:31.898Z,60.91
2022-09-22T17:34:01.431Z,61.66
2022-09-22T17:36:30.305Z,62.39
2022-09-22T17:38:59.623Z,63.05
2022-09-22T17:41:29.578Z,63.63
2022-09-22T17:43:58.746Z,64.17
2022-09-22T17:46:27.199Z,65.01
2022-09-22T17:49:12.974Z,65.34
2022-09-22T17:52:01.746Z,65.88
2022-09-22T17:54:50.018Z,66.39
2022-09-22T17:57:19.974Z,66.83
2022-09-22T17:59:48.399Z,66.76
2022-09-22T18:02:18.173Z,67.54
2022-09-22T18:04:47.356Z,68.05
2022-09-22T18:07:19.038Z,68.31
2022-09-22T18:09:48.039Z,68.13
2022-09-22T18:12:19.785Z,68.31
2022-09-22T18:14:49.880Z,69.03
2022-09-22T18:17:19.051Z,68.98
2022-09-22T18:19:47.229Z,68.94
2022-09-22T18:22:20.954Z,69.25
2022-09-22T18:24:50.389Z,69.17
2022-09-22T18:27:19.251Z,68.91
2022-09-22T18:29:49.916Z,69.53
2022-09-22T18:32:19.967Z,70.17
2022-09-22T18:34:52.869Z,70.05
2022-09-22T18:37:22.478Z,69.92
2022-09-22T18:39:50.597Z,69.93
2022-09-22T18:42:19.541Z,70.68
2022-09-22T18:44:47.940Z,70.43
2022-09-22T18:47:18.386Z,70.71
2022-09-22T18:49:48.217Z,71.24
2022-09-22T18:52:19.256Z,71.02
2022-09-22T18:54:48.608Z,71.22
2022-09-22T18:57:16.851Z,71.14
2022-09-22T18:59:44.649Z,71.54
2022-09-22T19:02:12.837Z,71.63
2022-09-22T19:04:41.091Z,71.48
2022-09-22T19:07:27.427Z,71.73
2022-09-22T19:09:56.674Z,72.10
2022-09-22T19:12:24.878Z,72.57
2022-09-22T19:14:57.319Z,72.71
2022-09-22T19:17:25.655Z,73.04
2022-09-22T19:19:53.420Z,73.25
2022-09-22T19:22:22.745Z,73.80
2022-09-22T19:24:52.457Z,73.91
2022-09-22T19:27:21.621Z,74.22
2022-09-22T19:29:50.538Z,74.43
2022-09-22T19:32:18.561Z,74.32
2022-09-22T19:34:46.428Z,75.03
2022-09-22T19:37:14.485Z,75.00
2022-09-22T19:39:42.310Z,75.12
2022-09-22T19:42:10.156Z,75.26
2022-09-22T19:44:40.101Z,75.79
2022-09-22T19:47:13.989Z,75.53
2022-09-22T19:49:42.216Z,75.71
2022-09-22T19:52:10.311Z,75.59
2022-09-22T19:54:38.083Z,75.57
2022-09-22T19:57:06.173Z,76.16
2022-09-22T19:59:34.014Z,76.06
2022-09-22T20:02:03.743Z,76.64
2022-09-22T20:04:34.854Z,76.63
2022-09-22T20:07:03.265Z,76.82
2022-09-22T20:09:31.082Z,77.10
2022-09-22T20:12:00.644Z,78.42
2022-09-22T20:14:31.378Z,77.98
2022-09-22T20:17:01.965Z,78.29
2022-09-22T20:19:32.713Z,78.96
2022-09-22T20:22:25.039Z,79.30
2022-09-22T20:24:55.511Z,79.68
2022-09-22T20:27:25.297Z,79.99
2022-09-22T20:29:57.126Z,80.12
2022-09-22T20:32:26.484Z,80.05
2022-09-22T20:34:56.825Z,80.08
2022-09-22T20:37:25.182Z,80.05
2022-09-22T20:39:53.115Z,80.32
2022-09-22T20:42:21.324Z,79.63
2022-09-22T20:44:49.521Z,81.00
2022-09-22T20:47:18.835Z,81.49
2022-09-22T20:49:51.598Z,81.52
2022-09-22T20:52:21.563Z,81.83
2022-09-22T20:54:49.515Z,82.23
2022-09-22T20:57:17.935Z,82.44
2022-09-22T20:59:47.437Z,82.46
2022-09-22T21:02:16.203Z,82.24
2022-09-22T21:04:52.907Z,82.67
2022-09-22T21:07:27.250Z,82.95
2022-09-22T21:10:12.623Z,83.00
2022-09-22T21:12:40.850Z,82.76
2022-09-22T21:15:09.486Z,82.61
2022-09-22T21:17:40.979Z,83.50
2022-09-22T21:20:11.367Z,84.18
2022-09-22T21:22:40.706Z,84.53
2022-09-22T21:25:10.892Z,84.04
2022-09-22T21:27:38.945Z,83.48
2022-09-22T21:30:08.327Z,84.64
2022-09-22T21:32:37.512Z,84.20
2022-09-22T21:35:06.671Z,85.27
2022-09-22T21:37:34.737Z,85.01
2022-09-22T21:40:04.461Z,85.15
2022-09-22T21:42:32.418Z,85.40
2022-09-22T21:45:00.712Z,85.75
2022-09-22T21:47:28.747Z,85.37
2022-09-22T21:49:56.406Z,85.40
2022-09-22T21:52:24.201Z,85.70
2022-09-22T21:54:52.101Z,85.81
2022-09-22T21:57:21.284Z,85.83
2022-09-22T21:59:49.162Z,86.06
2022-09-22T22:02:17.013Z,85.37
2022-09-22T22:04:46.456Z,85.12
2022-09-22T22:07:15.465Z,85.52
2022-09-22T22:09:43.292Z,84.70
2022-09-22T22:12:12.774Z,84.79
2022-09-22T22:14:43.897Z,84.77
2022-09-22T22:17:11.680Z,85.56
2022-09-22T22:19:39.396Z,85.15
2022-09-22T22:22:07.213Z,85.01
2022-09-22T22:24:40.046Z,85.06
2022-09-22T22:27:10.022Z,85.41
2022-09-22T22:29:38.883Z,85.19
2022-09-22T22:32:10.183Z,85.14
2022-09-22T22:34:38.310Z,84.98
2022-09-22T22:37:09.428Z,84.95
2022-09-22T22:39:37.441Z,85.10
2022-09-22T22:42:05.888Z,84.69
2022-09-22T22:44:35.074Z,83.94
2022-09-22T22:47:03.031Z,84.15
2022-09-22T22:49:32.492Z,83.69
2022-09-22T22:52:00.304Z,83.69
2022-09-22T22:54:28.072Z,83.58
2022-09-22T22:56:56.208Z,84.16
2022-09-22T22:59:24.002Z,83.85
2022-09-22T23:01:51.936Z,83.79
2022-09-22T23:04:21.146Z,84.04
2022-09-22T23:06:50.321Z,83.55
2022-09-22T23:09:18.395Z,84.25
2022-09-22T23:11:47.555Z,83.89
2022-09-22T23:14:15.987Z,83.45
2022-09-22T23:16:45.948Z,83.67
2022-09-22T23:19:16.011Z,84.65
2022-09-22T23:21:44.879Z,84.35
2022-09-22T23:24:16.662Z,84.21
2022-09-22T23:26:44.805Z,83.63
2022-09-22T23:29:12.699Z,83.88
2022-09-22T23:31:40.439Z,84.33
2022-09-22T23:34:08.333Z,84.77
2022-09-22T23:36:36.149Z,85.23
2022-09-22T23:39:04.728Z,84.16
2022-09-22T23:41:36.221Z,84.19
2022-09-22T23:44:06.503Z,85.03
2022-09-22T23:46:34.930Z,84.20
2022-09-22T23:49:02.725Z,85.23
2022-09-22T23:51:30.598Z,85.42
2022-09-22T23:53:59.172Z,85.50
2022-09-22T23:56:27.139Z,86.30
2022-09-22T23:58:56.278Z,86.11
